createdAt,value
2019-02-03T00:01:17.551Z,77.21
2019-02-03T00:03:44.793Z,76.96
2019-02-03T00:06:12.224Z,77.23
2019-02-03T00:08:39.497Z,76.69
2019-02-03T00:11:06.705Z,76.87
2019-02-03T00:13:34.248Z,76.92
2019-02-03T00:16:01.608Z,76.74
2019-02-03T00:18:28.997Z,76.70
2019-02-03T00:20:56.200Z,76.48
2019-02-03T00:23:23.536Z,76.23
2019-02-03T00:25:51.766Z,75.60
2019-02-03T00:28:20.619Z,75.70
2019-02-03T00:30:47.856Z,74.25
2019-02-03T00:33:15.015Z,74.58
2019-02-03T00:35:42.200Z,74.81
2019-02-03T00:38:19.890Z,73.98
2019-02-03T00:40:38.567Z,73.85
2019-02-03T00:43:06.150Z,73.97
2019-02-03T00:45:33.438Z,73.33
2019-02-03T00:48:00.588Z,73.37
2019-02-03T00:50:28.204Z,73.62
2019-02-03T00:52:55.889Z,73.65
2019-02-03T00:55:23.102Z,73.91
2019-02-03T00:57:50.781Z,73.47
2019-02-03T01:00:18.243Z,73.89
2019-02-03T01:02:45.459Z,73.91
2019-02-03T01:05:14.683Z,73.95
2019-02-03T01:07:41.960Z,74.01
2019-02-03T01:10:12.182Z,73.87
2019-02-03T01:12:39.400Z,73.94
2019-02-03T01:15:07.470Z,73.89
2019-02-03T01:17:36.160Z,73.96
2019-02-03T01:20:05.386Z,73.33
2019-02-03T01:22:32.749Z,72.88
2019-02-03T01:24:59.964Z,73.31
2019-02-03T01:27:27.266Z,73.44
2019-02-03T01:29:54.789Z,73.60
2019-02-03T01:32:22.077Z,74.06
2019-02-03T01:34:49.323Z,73.95
2019-02-03T01:37:16.624Z,73.72
2019-02-03T01:39:44.956Z,73.66
2019-02-03T01:42:12.527Z,73.43
2019-02-03T01:44:40.095Z,73.45
2019-02-03T01:47:07.366Z,74.02
2019-02-03T01:49:34.616Z,74.58
2019-02-03T01:52:01.920Z,74.45
2019-02-03T01:54:29.040Z,73.87
2019-02-03T01:56:56.333Z,73.94
2019-02-03T01:59:23.553Z,73.71
2019-02-03T02:01:51.024Z,73.96
2019-02-03T02:04:18.340Z,73.72
2019-02-03T02:06:45.634Z,73.22
2019-02-03T02:09:12.968Z,72.83
2019-02-03T02:11:40.621Z,72.41
2019-02-03T02:14:07.981Z,72.37
2019-02-03T02:16:35.217Z,72.26
2019-02-03T02:19:02.465Z,72.31
2019-02-03T02:21:29.850Z,72.13
2019-02-03T02:23:58.288Z,71.91
2019-02-03T02:26:25.789Z,71.58
2019-02-03T02:28:53.439Z,71.49
2019-02-03T02:31:23.287Z,71.27
2019-02-03T02:33:50.955Z,70.79
2019-02-03T02:36:18.160Z,70.54
2019-02-03T02:38:45.453Z,70.15
2019-02-03T02:41:12.710Z,70.36
2019-02-03T02:43:40.190Z,70.90
2019-02-03T02:46:07.450Z,70.73
2019-02-03T02:48:34.684Z,71.16
2019-02-03T02:51:02.032Z,70.89
2019-02-03T02:53:29.270Z,71.17
2019-02-03T02:55:56.519Z,70.91
2019-02-03T02:58:23.894Z,71.21
2019-02-03T03:00:51.156Z,71.77
2019-02-03T03:03:18.381Z,71.56
2019-02-03T03:05:45.817Z,71.75
2019-02-03T03:08:19.067Z,71.25
2019-02-03T03:10:42.225Z,71.83
2019-02-03T03:13:09.763Z,72.00
2019-02-03T03:15:37.005Z,72.28
2019-02-03T03:18:04.307Z,71.53
2019-02-03T03:20:31.470Z,71.86
2019-02-03T03:22:59.213Z,72.06
2019-02-03T03:25:26.440Z,72.19
2019-02-03T03:27:53.715Z,72.49
2019-02-03T03:30:23.057Z,72.43
2019-02-03T03:32:51.094Z,72.54
2019-02-03T03:35:18.726Z,72.25
2019-02-03T03:37:45.944Z,72.34
2019-02-03T03:40:15.281Z,72.39
2019-02-03T03:42:42.519Z,72.51
2019-02-03T03:45:10.584Z,72.04
2019-02-03T03:47:37.720Z,71.42
2019-02-03T03:50:06.165Z,71.33
2019-02-03T03:52:33.778Z,71.16
2019-02-03T03:55:01.135Z,71.04
2019-02-03T03:57:28.362Z,71.04
2019-02-03T03:59:57.216Z,70.76
2019-02-03T04:02:24.462Z,71.04
2019-02-03T04:04:52.333Z,71.06
2019-02-03T04:07:19.940Z,70.75
2019-02-03T04:09:47.221Z,70.79
2019-02-03T04:12:14.504Z,71.06
2019-02-03T04:14:41.862Z,71.11
2019-02-03T04:17:09.116Z,71.29
2019-02-03T04:19:36.961Z,71.20
2019-02-03T04:22:04.519Z,71.19
2019-02-03T04:24:32.121Z,71.14
2019-02-03T04:27:00.273Z,70.94
2019-02-03T04:29:27.592Z,71.00
2019-02-03T04:31:54.879Z,70.39
2019-02-03T04:34:44.269Z,69.79
2019-02-03T04:37:12.051Z,69.37
2019-02-03T04:39:46.404Z,69.32
2019-02-03T04:42:16.806Z,69.31
2019-02-03T04:44:45.367Z,68.43
2019-02-03T04:47:14.565Z,68.37
2019-02-03T04:49:44.660Z,68.72
2019-02-03T04:52:17.600Z,68.62
2019-02-03T04:54:50.303Z,68.64
2019-02-03T04:57:23.553Z,68.65
2019-02-03T04:59:51.675Z,68.40
2019-02-03T05:02:18.923Z,67.74
2019-02-03T05:04:46.296Z,67.89
2019-02-03T05:07:13.689Z,67.85
2019-02-03T05:09:41.238Z,67.96
2019-02-03T05:12:08.754Z,67.83
2019-02-03T05:14:36.096Z,67.45
2019-02-03T05:17:03.784Z,67.62
2019-02-03T05:19:31.001Z,67.72
2019-02-03T05:21:58.250Z,67.77
2019-02-03T05:24:25.523Z,67.97
2019-02-03T05:26:52.793Z,68.42
2019-02-03T05:29:20.090Z,68.32
2019-02-03T05:31:47.331Z,68.37
2019-02-03T05:34:14.425Z,68.26
2019-02-03T05:36:41.985Z,68.36
2019-02-03T05:39:09.878Z,68.36
2019-02-03T05:41:37.410Z,68.50
2019-02-03T05:44:05.158Z,68.59
2019-02-03T05:46:32.506Z,68.82
2019-02-03T05:49:00.721Z,69.09
2019-02-03T05:51:28.066Z,69.40
2019-02-03T05:53:55.727Z,69.19
2019-02-03T05:56:23.036Z,69.31
2019-02-03T05:58:50.253Z,69.40
2019-02-03T06:01:17.593Z,69.14
2019-02-03T06:03:44.809Z,69.23
2019-02-03T06:06:12.100Z,69.74
2019-02-03T06:08:39.319Z,70.02
2019-02-03T06:11:06.844Z,70.32
2019-02-03T06:13:34.469Z,70.71
2019-02-03T06:16:01.742Z,71.04
2019-02-03T06:18:29.256Z,71.53
2019-02-03T06:20:57.698Z,71.73
2019-02-03T06:23:24.843Z,72.21
2019-02-03T06:25:51.960Z,72.21
2019-02-03T06:28:19.559Z,72.45
2019-02-03T06:31:07.002Z,72.64
2019-02-03T06:33:34.530Z,72.80
2019-02-03T06:36:01.830Z,72.36
2019-02-03T06:38:29.356Z,72.11
2019-02-03T06:40:56.654Z,71.88
2019-02-03T06:43:24.601Z,71.54
2019-02-03T06:45:57.889Z,71.33
2019-02-03T06:48:25.290Z,71.43
2019-02-03T06:50:52.453Z,71.56
2019-02-03T06:53:19.719Z,71.55
2019-02-03T06:55:46.978Z,71.54
2019-02-03T06:58:14.199Z,71.53
2019-02-03T07:00:41.489Z,71.16
2019-02-03T07:03:08.964Z,71.45
2019-02-03T07:05:36.418Z,71.76
2019-02-03T07:08:03.696Z,71.92
2019-02-03T07:10:31.353Z,72.00
2019-02-03T07:13:00.292Z,72.11
2019-02-03T07:15:27.664Z,72.13
2019-02-03T07:17:54.801Z,71.98
2019-02-03T07:20:22.053Z,72.10
2019-02-03T07:22:49.314Z,71.75
2019-02-03T07:25:16.845Z,71.63
2019-02-03T07:27:44.109Z,71.39
2019-02-03T07:30:12.604Z,70.99
2019-02-03T07:32:40.259Z,70.72
2019-02-03T07:35:08.803Z,70.51
2019-02-03T07:37:37.017Z,70.07
2019-02-03T07:40:12.099Z,69.99
2019-02-03T07:42:33.480Z,69.56
2019-02-03T07:45:00.703Z,69.45
2019-02-03T07:47:27.955Z,69.27
2019-02-03T07:49:55.182Z,68.92
2019-02-03T07:52:22.397Z,68.95
2019-02-03T07:54:49.919Z,68.71
2019-02-03T07:57:17.555Z,68.01
2019-02-03T07:59:44.785Z,68.15
2019-02-03T08:02:12.071Z,68.07
2019-02-03T08:04:39.551Z,67.17
2019-02-03T08:07:07.205Z,66.76
2019-02-03T08:09:34.428Z,66.30
2019-02-03T08:12:01.698Z,66.62
2019-02-03T08:14:28.965Z,66.25
2019-02-03T08:16:56.559Z,65.28
2019-02-03T08:19:24.691Z,64.87
2019-02-03T08:21:51.982Z,64.75
2019-02-03T08:24:19.417Z,64.63
2019-02-03T08:26:46.662Z,64.00
2019-02-03T08:29:14.865Z,64.16
2019-02-03T08:31:42.767Z,64.03
2019-02-03T08:34:10.049Z,63.65
2019-02-03T08:36:38.209Z,63.62
2019-02-03T08:39:07.657Z,63.48
2019-02-03T08:41:35.577Z,63.32
2019-02-03T08:44:06.173Z,63.44
2019-02-03T08:46:34.246Z,63.22
2019-02-03T08:49:04.808Z,62.84
2019-02-03T08:51:32.596Z,62.58
2019-02-03T08:53:59.954Z,62.11
2019-02-03T08:56:34.883Z,62.93
2019-02-03T08:59:04.463Z,62.73
2019-02-03T09:01:34.882Z,62.34
2019-02-03T09:04:02.572Z,62.68
2019-02-03T09:06:34.633Z,62.67
2019-02-03T09:09:04.290Z,62.36
2019-02-03T09:11:36.209Z,62.68
2019-02-03T09:14:04.091Z,62.65
2019-02-03T09:16:31.431Z,62.16
2019-02-03T09:18:58.696Z,61.78
2019-02-03T09:21:27.086Z,61.82
2019-02-03T09:23:54.766Z,61.54
2019-02-03T09:26:22.026Z,60.63
2019-02-03T09:28:49.158Z,60.88
2019-02-03T09:31:16.813Z,60.88
2019-02-03T09:33:44.029Z,60.85
2019-02-03T09:36:11.843Z,60.58
2019-02-03T09:38:39.197Z,60.47
2019-02-03T09:41:06.613Z,60.57
2019-02-03T09:43:33.801Z,60.49
2019-02-03T09:46:01.099Z,60.18
2019-02-03T09:48:28.448Z,59.71
2019-02-03T09:50:55.626Z,58.46
2019-02-03T09:53:22.900Z,59.02
2019-02-03T09:55:50.993Z,58.92
2019-02-03T09:58:18.217Z,58.51
2019-02-03T10:00:46.289Z,58.65
2019-02-03T10:03:13.910Z,58.98
2019-02-03T10:05:41.072Z,58.11
2019-02-03T10:08:08.391Z,58.13
2019-02-03T10:10:37.557Z,57.52
2019-02-03T10:13:22.850Z,56.98
2019-02-03T10:15:50.187Z,57.16
2019-02-03T10:18:17.803Z,57.92
2019-02-03T10:20:45.304Z,58.21
2019-02-03T10:23:13.207Z,58.75
2019-02-03T10:25:40.404Z,58.63
2019-02-03T10:28:07.916Z,58.29
2019-02-03T10:30:35.298Z,58.07
2019-02-03T10:33:02.775Z,58.19
2019-02-03T10:35:30.388Z,57.21
2019-02-03T10:38:03.686Z,56.26
2019-02-03T10:40:33.345Z,56.39
2019-02-03T10:43:01.377Z,56.29
2019-02-03T10:45:28.898Z,56.36
2019-02-03T10:47:56.529Z,55.76
2019-02-03T10:50:26.278Z,54.95
2019-02-03T10:52:54.003Z,55.05
2019-02-03T10:55:21.350Z,54.81
2019-02-03T10:57:48.819Z,54.90
2019-02-03T11:00:19.033Z,54.91
2019-02-03T11:02:46.299Z,55.18
2019-02-03T11:05:15.933Z,54.75
2019-02-03T11:07:45.355Z,55.14
2019-02-03T11:10:15.856Z,55.54
2019-02-03T11:12:42.940Z,56.20
2019-02-03T11:15:11.455Z,57.34
2019-02-03T11:17:39.816Z,57.22
2019-02-03T11:20:11.061Z,57.32
2019-02-03T11:22:38.701Z,57.33
2019-02-03T11:25:07.087Z,56.64
2019-02-03T11:27:34.971Z,56.32
2019-02-03T11:30:02.815Z,56.14
2019-02-03T11:32:30.105Z,56.59
2019-02-03T11:34:57.294Z,56.35
2019-02-03T11:37:24.441Z,56.47
2019-02-03T11:39:51.602Z,57.19
2019-02-03T11:42:19.108Z,57.75
2019-02-03T11:44:46.603Z,57.93
2019-02-03T11:47:13.833Z,57.78
2019-02-03T11:49:41.155Z,57.88
2019-02-03T11:52:08.408Z,57.78
2019-02-03T11:54:35.756Z,58.03
2019-02-03T11:57:03.119Z,57.93
2019-02-03T11:59:30.481Z,57.84
2019-02-03T12:01:58.253Z,58.06
2019-02-03T12:04:25.421Z,58.86
2019-02-03T12:06:52.617Z,59.13
2019-02-03T12:09:20.344Z,59.37
2019-02-03T12:12:00.385Z,59.42
2019-02-03T12:14:17.349Z,59.28
2019-02-03T12:16:45.449Z,59.33
2019-02-03T12:19:13.351Z,59.66
2019-02-03T12:21:40.696Z,59.41
2019-02-03T12:24:07.928Z,59.33
2019-02-03T12:26:36.625Z,59.50
2019-02-03T12:29:06.595Z,59.50
2019-02-03T12:31:34.093Z,59.47
2019-02-03T12:34:01.621Z,59.49
2019-02-03T12:36:29.145Z,60.06
2019-02-03T12:38:56.668Z,60.09
2019-02-03T12:41:24.119Z,60.26
2019-02-03T12:43:52.176Z,60.37
2019-02-03T12:46:19.896Z,60.14
2019-02-03T12:48:47.223Z,60.23
2019-02-03T12:51:14.836Z,60.57
2019-02-03T12:53:42.419Z,60.81
2019-02-03T12:56:09.800Z,61.05
2019-02-03T12:58:36.958Z,60.98
2019-02-03T13:01:05.172Z,60.49
2019-02-03T13:03:32.654Z,60.39
2019-02-03T13:05:59.706Z,59.57
2019-02-03T13:08:27.375Z,59.45
2019-02-03T13:10:54.732Z,59.44
2019-02-03T13:13:25.482Z,59.50
2019-02-03T13:15:54.137Z,59.19
2019-02-03T13:18:21.760Z,59.09
2019-02-03T13:20:49.641Z,58.74
2019-02-03T13:23:17.053Z,58.36
2019-02-03T13:25:45.331Z,59.03
2019-02-03T13:28:13.244Z,58.55
2019-02-03T13:30:48.038Z,58.48
2019-02-03T13:33:15.737Z,58.12
2019-02-03T13:35:43.010Z,57.15
2019-02-03T13:38:10.614Z,56.17
2019-02-03T13:40:38.259Z,55.74
2019-02-03T13:43:06.079Z,55.93
2019-02-03T13:45:34.369Z,55.82
2019-02-03T13:48:01.917Z,55.05
2019-02-03T13:50:30.418Z,54.79
2019-02-03T13:53:00.777Z,54.96
2019-02-03T13:55:30.005Z,55.41
2019-02-03T13:57:58.193Z,55.74
2019-02-03T14:00:29.131Z,54.78
2019-02-03T14:02:56.307Z,55.06
2019-02-03T14:05:23.620Z,54.82
2019-02-03T14:07:51.144Z,54.49
2019-02-03T14:10:32.466Z,53.25
2019-02-03T14:13:00.483Z,53.47
2019-02-03T14:15:28.769Z,53.27
2019-02-03T14:17:56.142Z,53.18
2019-02-03T14:20:25.179Z,53.85
2019-02-03T14:22:52.899Z,53.74
2019-02-03T14:25:26.961Z,54.18
2019-02-03T14:27:55.403Z,54.22
2019-02-03T14:30:39.274Z,53.75
2019-02-03T14:32:58.510Z,53.97
2019-02-03T14:35:26.393Z,54.65
2019-02-03T14:37:54.220Z,54.58
2019-02-03T14:40:22.578Z,54.17
2019-02-03T14:43:00.855Z,53.98
2019-02-03T14:45:26.099Z,53.30
2019-02-03T14:47:54.638Z,53.53
2019-02-03T14:50:23.239Z,52.56
2019-02-03T14:52:52.954Z,52.49
2019-02-03T14:55:25.239Z,52.97
2019-02-03T14:57:53.228Z,53.16
2019-02-03T15:00:26.247Z,53.84
2019-02-03T15:02:54.081Z,54.55
2019-02-03T15:05:21.923Z,55.18
2019-02-03T15:07:49.483Z,54.89
2019-02-03T15:10:16.866Z,55.42
2019-02-03T15:12:44.595Z,55.12
2019-02-03T15:15:13.589Z,55.06
2019-02-03T15:17:41.284Z,54.68
2019-02-03T15:20:11.011Z,55.00
2019-02-03T15:22:38.441Z,55.10
2019-02-03T15:25:06.744Z,54.34
2019-02-03T15:27:34.538Z,54.60
2019-02-03T15:30:02.142Z,54.64
2019-02-03T15:32:29.940Z,54.12
2019-02-03T15:34:57.546Z,53.90
2019-02-03T15:37:24.913Z,53.97
2019-02-03T15:39:55.064Z,53.73
2019-02-03T15:42:21.878Z,54.06
2019-02-03T15:44:49.338Z,53.68
2019-02-03T15:47:16.965Z,53.35
2019-02-03T15:49:44.170Z,53.48
2019-02-03T15:52:11.808Z,53.83
2019-02-03T15:54:39.658Z,54.03
2019-02-03T15:57:07.190Z,53.67
2019-02-03T15:59:34.465Z,53.57
2019-02-03T16:02:02.744Z,53.65
2019-02-03T16:04:29.946Z,53.88
2019-02-03T16:06:57.772Z,54.08
2019-02-03T16:09:25.608Z,54.37
2019-02-03T16:11:53.450Z,54.93
2019-02-03T16:14:20.757Z,54.79
2019-02-03T16:16:48.402Z,54.73
2019-02-03T16:19:15.676Z,54.44
2019-02-03T16:21:43.166Z,53.94
2019-02-03T16:24:10.669Z,53.97
2019-02-03T16:26:38.616Z,54.21
2019-02-03T16:29:07.356Z,53.93
2019-02-03T16:31:35.026Z,53.66
2019-02-03T16:34:02.880Z,53.94
2019-02-03T16:36:30.541Z,54.19
2019-02-03T16:38:58.868Z,54.11
2019-02-03T16:41:25.956Z,54.24
2019-02-03T16:43:53.306Z,54.27
2019-02-03T16:46:20.604Z,53.60
2019-02-03T16:48:48.189Z,53.71
2019-02-03T16:51:15.470Z,53.77
2019-02-03T16:53:45.970Z,53.70
2019-02-03T16:56:13.414Z,53.87
2019-02-03T16:58:40.866Z,53.82
2019-02-03T17:01:08.488Z,53.85
2019-02-03T17:03:35.663Z,54.18
2019-02-03T17:06:03.014Z,54.47
2019-02-03T17:08:30.364Z,54.83
2019-02-03T17:10:58.166Z,54.99
2019-02-03T17:13:25.336Z,55.37
2019-02-03T17:15:57.720Z,55.09
2019-02-03T17:18:24.895Z,55.86
2019-02-03T17:21:01.506Z,55.67
2019-02-03T17:23:21.432Z,55.95
2019-02-03T17:25:51.607Z,56.23
2019-02-03T17:28:18.763Z,56.97
2019-02-03T17:30:46.375Z,56.63
2019-02-03T17:33:13.852Z,57.17
2019-02-03T17:35:53.444Z,57.01
2019-02-03T17:38:10.263Z,57.10
2019-02-03T17:40:37.538Z,57.66
2019-02-03T17:43:04.920Z,57.61
2019-02-03T17:45:32.249Z,57.57
2019-02-03T17:47:59.385Z,57.85
2019-02-03T17:50:26.651Z,58.40
2019-02-03T17:52:54.259Z,58.48
2019-02-03T17:55:22.062Z,58.79
2019-02-03T17:57:49.237Z,58.75
2019-02-03T18:00:18.824Z,58.74
2019-02-03T18:02:46.989Z,58.74
2019-02-03T18:05:14.575Z,59.21
2019-02-03T18:07:42.020Z,59.61
2019-02-03T18:10:16.494Z,60.08
2019-02-03T18:12:43.721Z,60.19
2019-02-03T18:15:10.914Z,60.66
2019-02-03T18:17:38.063Z,60.73
2019-02-03T18:20:07.949Z,60.82
2019-02-03T18:22:36.212Z,61.15
2019-02-03T18:25:04.256Z,61.32
2019-02-03T18:27:31.487Z,61.31
2019-02-03T18:29:59.004Z,61.42
2019-02-03T18:32:26.228Z,61.53
2019-02-03T18:34:53.544Z,61.68
2019-02-03T18:37:20.901Z,61.85
2019-02-03T18:39:48.079Z,62.06
2019-02-03T18:42:16.422Z,62.24
2019-02-03T18:44:45.251Z,62.51
2019-02-03T18:47:12.655Z,62.76
2019-02-03T18:49:40.495Z,62.70
2019-02-03T18:52:07.629Z,63.00
2019-02-03T18:54:35.366Z,63.12
2019-02-03T18:57:02.648Z,63.39
2019-02-03T18:59:31.247Z,63.66
2019-02-03T19:01:59.918Z,63.62
2019-02-03T19:04:27.488Z,63.64
2019-02-03T19:06:54.664Z,63.81
2019-02-03T19:09:21.968Z,64.05
2019-02-03T19:11:49.337Z,64.52
2019-02-03T19:14:18.234Z,64.65
2019-02-03T19:16:46.045Z,64.77
2019-02-03T19:19:13.355Z,64.92
2019-02-03T19:21:40.691Z,64.90
2019-02-03T19:24:08.083Z,65.19
2019-02-03T19:26:35.756Z,65.42
2019-02-03T19:29:03.195Z,65.82
2019-02-03T19:31:30.562Z,65.80
2019-02-03T19:33:59.071Z,65.79
2019-02-03T19:36:26.370Z,65.66
2019-02-03T19:38:53.934Z,65.61
2019-02-03T19:41:21.324Z,65.64
2019-02-03T19:43:49.070Z,65.49
2019-02-03T19:46:17.384Z,65.75
2019-02-03T19:48:46.773Z,65.78
2019-02-03T19:51:14.370Z,66.13
2019-02-03T19:53:42.323Z,66.20
2019-02-03T19:56:09.892Z,66.45
2019-02-03T20:01:09.752Z,66.06
2019-02-03T20:03:37.236Z,65.95
2019-02-03T20:06:04.543Z,66.11
2019-02-03T20:08:31.792Z,66.15
2019-02-03T20:10:59.158Z,66.02
2019-02-03T20:13:26.909Z,65.36
2019-02-03T20:15:54.297Z,65.34
2019-02-03T20:18:22.449Z,65.64
2019-02-03T20:20:50.030Z,66.07
2019-02-03T20:23:17.662Z,66.43
2019-02-03T20:25:44.820Z,66.55
2019-02-03T20:28:12.069Z,66.52
2019-02-03T20:30:39.683Z,66.80
2019-02-03T20:33:07.265Z,66.63
2019-02-03T20:35:34.559Z,67.19
2019-02-03T20:38:02.067Z,67.54
2019-02-03T20:40:31.394Z,67.73
2019-02-03T20:42:58.951Z,67.68
2019-02-03T20:45:26.367Z,67.32
2019-02-03T20:47:53.488Z,67.08
2019-02-03T20:50:20.980Z,67.12
2019-02-03T20:52:48.634Z,67.36
2019-02-03T20:55:16.456Z,67.78
2019-02-03T20:57:43.607Z,67.74
2019-02-03T21:00:14.432Z,67.25
2019-02-03T21:02:41.552Z,67.35
2019-02-03T21:05:08.988Z,67.33
2019-02-03T21:07:36.030Z,67.66
2019-02-03T21:10:05.142Z,67.74
2019-02-03T21:12:32.333Z,67.76
2019-02-03T21:14:59.758Z,67.72
2019-02-03T21:17:27.002Z,67.96
2019-02-03T21:19:54.520Z,68.24
2019-02-03T21:22:21.814Z,68.56
2019-02-03T21:24:49.068Z,68.92
2019-02-03T21:27:16.880Z,69.26
2019-02-03T21:29:44.078Z,70.17
2019-02-03T21:32:11.372Z,70.80
2019-02-03T21:34:38.549Z,71.50
2019-02-03T21:37:05.724Z,72.35
2019-02-03T21:39:32.982Z,72.77
2019-02-03T21:42:00.126Z,73.65
2019-02-03T21:44:27.503Z,74.69
2019-02-03T21:46:55.013Z,74.95
2019-02-03T21:49:22.214Z,75.52
2019-02-03T21:51:49.385Z,76.06
2019-02-03T21:54:16.609Z,76.64
2019-02-03T21:56:44.101Z,77.00
2019-02-03T21:59:11.288Z,77.47
2019-02-03T22:01:38.584Z,77.88
2019-02-03T22:04:05.742Z,77.81
2019-02-03T22:06:32.966Z,77.79
2019-02-03T22:09:00.344Z,77.66
2019-02-03T22:11:27.626Z,77.54
2019-02-03T22:13:54.826Z,77.75
2019-02-03T22:16:22.313Z,78.14
2019-02-03T22:18:49.463Z,78.41
2019-02-03T22:21:16.777Z,78.57
2019-02-03T22:23:43.881Z,78.42
2019-02-03T22:26:10.934Z,78.01
2019-02-03T22:28:38.399Z,77.88
2019-02-03T22:31:05.519Z,77.81
2019-02-03T22:33:32.976Z,77.54
2019-02-03T22:36:00.153Z,77.34
2019-02-03T22:38:27.462Z,77.37
2019-02-03T22:40:54.609Z,77.41
2019-02-03T22:43:21.915Z,77.49
2019-02-03T22:45:49.116Z,77.44
2019-02-03T22:48:16.325Z,77.34
2019-02-03T22:50:43.424Z,77.29
2019-02-03T22:53:10.645Z,77.11
2019-02-03T22:55:37.859Z,77.07
2019-02-03T22:58:05.062Z,77.12
2019-02-03T23:01:08.908Z,76.65
2019-02-03T23:03:41.916Z,75.59
2019-02-03T23:06:09.206Z,74.61
2019-02-03T23:08:36.420Z,74.74
2019-02-03T23:11:04.399Z,75.19
2019-02-03T23:13:31.872Z,75.62
2019-02-03T23:15:59.043Z,75.72
2019-02-03T23:18:26.255Z,76.10
2019-02-03T23:20:53.361Z,76.41
2019-02-03T23:23:20.758Z,76.58
2019-02-03T23:25:47.917Z,76.92
2019-02-03T23:28:15.407Z,77.02
2019-02-03T23:30:42.847Z,77.19
2019-02-03T23:33:10.471Z,77.42
2019-02-03T23:35:37.603Z,77.50
2019-02-03T23:38:04.909Z,77.42
2019-02-03T23:40:32.071Z,77.28
2019-02-03T23:42:59.274Z,77.28
2019-02-03T23:45:27.401Z,77.26
2019-02-03T23:47:54.453Z,77.44
2019-02-03T23:50:21.622Z,77.68
2019-02-03T23:52:48.937Z,77.83
2019-02-03T23:55:16.135Z,77.82
2019-02-03T23:57:43.521Z,77.95
